Time;durP1;ratioP1;P1;durP2;ratioP2;P2;SDS_P1;SDS_P2;PMS_P1;PMS_P2;Temp;Humidity;BMP_temperature;BMP_pressure;BME280_temperature;BME280_humidity;BME280_pressure;Samples;Min_cycle;Max_cycle;Signal;HPM_P1;HPM_P2
2023/09/20 00:02:12;;;;;;;4.32;1.30;;;;;;;;;;5107099;28;20052;-67
2023/09/20 00:04:37;;;;;;;6.50;1.40;;;;;;;;;;5104064;28;20028;-65
2023/09/20 00:07:03;;;;;;;5.28;1.15;;;;;;;;;;5109606;28;20028;-64
2023/09/20 00:09:30;;;;;;;3.97;1.20;;;;;;;;;;5113350;28;20039;-66
2023/09/20 00:11:55;;;;;;;6.40;1.80;;;;;;;;;;5092006;28;20095;-66
2023/09/20 00:14:21;;;;;;;5.07;1.55;;;;;;;;;;5113996;28;20431;-66
2023/09/20 00:16:47;;;;;;;6.20;1.50;;;;;;;;;;5108567;28;20028;-65
2023/09/20 00:19:12;;;;;;;4.32;1.33;;;;;;;;;;5110819;28;20540;-65
2023/09/20 00:21:37;;;;;;;4.65;1.23;;;;;;;;;;5106969;28;20012;-65
2023/09/20 00:24:05;;;;;;;5.20;1.35;;;;;;;;;;5111378;28;20066;-66
2023/09/20 00:26:31;;;;;;;6.28;1.50;;;;;;;;;;5113482;28;20067;-66
2023/09/20 00:29:03;;;;;;;5.63;1.38;;;;;;;;;;5110663;28;20016;-65
2023/09/20 00:31:29;;;;;;;5.55;1.30;;;;;;;;;;5110493;28;20019;-65
2023/09/20 00:33:56;;;;;;;8.00;1.50;;;;;;;;;;5111572;28;20022;-66
2023/09/20 00:36:21;;;;;;;4.95;1.40;;;;;;;;;;5113724;28;20084;-67
2023/09/20 00:38:47;;;;;;;8.68;1.45;;;;;;;;;;5113946;28;20425;-64
2023/09/20 00:41:13;;;;;;;7.82;1.70;;;;;;;;;;5114049;28;20487;-61
2023/09/20 00:43:38;;;;;;;3.90;1.50;;;;;;;;;;5112532;28;20099;-59
2023/09/20 00:46:04;;;;;;;5.38;1.67;;;;;;;;;;5111826;28;20028;-62
2023/09/20 00:48:30;;;;;;;5.38;1.83;;;;;;;;;;5112779;28;20031;-60
2023/09/20 00:50:55;;;;;;;7.97;1.50;;;;;;;;;;5107784;28;20016;-60
2023/09/20 00:53:21;;;;;;;7.20;1.40;;;;;;;;;;5109323;28;20019;-62
2023/09/20 00:55:46;;;;;;;6.80;1.55;;;;;;;;;;5113431;28;20149;-60
2023/09/20 00:58:15;;;;;;;8.82;1.73;;;;;;;;;;5112288;28;20081;-61
2023/09/20 01:03:43;;;;;;;7.93;2.00;;;;;;;;;;5107226;27;20018;-65
2023/09/20 01:06:09;;;;;;;5.72;1.85;;;;;;;;;;5107804;28;20107;-67
2023/09/20 01:08:34;;;;;;;6.05;1.67;;;;;;;;;;5113551;28;20019;-65
2023/09/20 01:11:00;;;;;;;5.47;1.85;;;;;;;;;;5113656;28;20477;-67
2023/09/20 01:13:26;;;;;;;7.43;2.08;;;;;;;;;;5113272;28;20024;-64
2023/09/20 01:15:52;;;;;;;7.47;1.50;;;;;;;;;;5111003;28;20038;-66
2023/09/20 01:18:17;;;;;;;4.65;1.30;;;;;;;;;;5111801;28;20449;-67
2023/09/20 01:20:43;;;;;;;3.22;1.17;;;;;;;;;;5111552;28;20098;-66
2023/09/20 01:23:08;;;;;;;6.20;1.60;;;;;;;;;;5109979;28;20130;-65
2023/09/20 01:25:35;;;;;;;6.03;1.35;;;;;;;;;;5103622;28;20523;-66
2023/09/20 01:28:04;;;;;;;4.53;1.40;;;;;;;;;;5113337;28;20050;-64
2023/09/20 01:30:33;;;;;;;4.72;1.50;;;;;;;;;;5108694;28;20457;-64
2023/09/20 01:33:00;;;;;;;7.82;2.05;;;;;;;;;;5113365;28;20019;-65
2023/09/20 01:35:26;;;;;;;7.65;1.70;;;;;;;;;;5105076;28;20023;-65
2023/09/20 01:37:52;;;;;;;3.22;1.20;;;;;;;;;;5113213;28;20057;-66
2023/09/20 01:40:23;;;;;;;5.72;1.60;;;;;;;;;;5112805;28;20019;-66
2023/09/20 01:42:49;;;;;;;6.53;1.42;;;;;;;;;;5112971;28;20026;-65
2023/09/20 01:45:15;;;;;;;6.95;1.67;;;;;;;;;;5109696;28;20028;-65
2023/09/20 01:47:42;;;;;;;5.50;1.50;;;;;;;;;;5112986;28;20459;-66
2023/09/20 01:50:10;;;;;;;5.90;1.60;;;;;;;;;;5112986;28;20016;-66
2023/09/20 01:52:36;;;;;;;5.93;1.70;;;;;;;;;;5112952;28;20523;-66
2023/09/20 01:55:02;;;;;;;8.88;1.70;;;;;;;;;;5112934;28;20016;-65
2023/09/20 01:57:27;;;;;;;11.85;1.75;;;;;;;;;;5112598;28;20425;-65
2023/09/20 01:59:52;;;;;;;6.82;1.80;;;;;;;;;;5110492;28;20016;-66
2023/09/20 02:02:18;;;;;;;11.05;1.80;;;;;;;;;;5108484;28;20046;-67
2023/09/20 02:04:43;;;;;;;10.02;2.15;;;;;;;;;;5112371;28;20375;-67
2023/09/20 02:07:10;;;;;;;4.72;1.55;;;;;;;;;;5112749;28;20486;-65
2023/09/20 02:09:35;;;;;;;7.00;1.60;;;;;;;;;;5112262;28;20023;-65
2023/09/20 02:12:00;;;;;;;4.95;1.48;;;;;;;;;;5112333;28;20019;-62
2023/09/20 02:14:27;;;;;;;8.10;1.75;;;;;;;;;;5112339;28;20036;-61
2023/09/20 02:16:52;;;;;;;5.70;1.70;;;;;;;;;;5112796;28;20051;-60
2023/09/20 02:19:19;;;;;;;8.23;1.73;;;;;;;;;;5108618;28;20528;-60
2023/09/20 02:21:45;;;;;;;8.65;1.70;;;;;;;;;;5112246;28;20071;-60
2023/09/20 02:24:10;;;;;;;8.18;1.73;;;;;;;;;;5111977;28;20434;-61
2023/09/20 02:26:36;;;;;;;5.00;1.60;;;;;;;;;;5111850;28;20051;-63
2023/09/20 02:29:02;;;;;;;6.63;2.38;;;;;;;;;;5112229;28;20020;-63
2023/09/20 02:31:27;;;;;;;4.40;1.48;;;;;;;;;;5112605;28;20072;-62
2023/09/20 02:33:53;;;;;;;5.90;1.90;;;;;;;;;;5104076;28;20514;-60
2023/09/20 02:36:19;;;;;;;6.65;1.70;;;;;;;;;;5110754;28;20020;-62
2023/09/20 02:38:44;;;;;;;6.53;1.77;;;;;;;;;;5111830;28;20550;-61
2023/09/20 02:41:09;;;;;;;7.75;1.77;;;;;;;;;;5112437;28;20558;-61
2023/09/20 02:43:35;;;;;;;6.78;1.70;;;;;;;;;;5111939;28;20494;-62
2023/09/20 02:46:03;;;;;;;8.77;1.98;;;;;;;;;;5112282;28;20030;-60
2023/09/20 02:48:31;;;;;;;6.03;1.77;;;;;;;;;;5115037;28;20094;-62
2023/09/20 02:50:57;;;;;;;7.28;1.63;;;;;;;;;;5112322;28;20382;-62
2023/09/20 02:53:23;;;;;;;8.75;2.55;;;;;;;;;;5111089;28;20011;-62
2023/09/20 02:55:48;;;;;;;6.78;1.50;;;;;;;;;;5115955;28;20020;-62
2023/09/20 02:58:13;;;;;;;6.85;1.90;;;;;;;;;;5116421;28;20042;-60
2023/09/20 03:00:46;;;;;;;8.30;2.15;;;;;;;;;;5114271;28;20407;-61
2023/09/20 03:03:15;;;;;;;8.38;1.73;;;;;;;;;;5107409;28;20478;-61
2023/09/20 03:05:40;;;;;;;6.93;1.83;;;;;;;;;;5116046;28;20447;-62
2023/09/20 03:08:12;;;;;;;8.35;1.55;;;;;;;;;;5115911;28;20169;-60
2023/09/20 03:10:43;;;;;;;8.30;1.50;;;;;;;;;;5112235;28;20043;-60
2023/09/20 03:13:11;;;;;;;6.18;1.70;;;;;;;;;;5115222;28;20046;-62
2023/09/20 03:15:43;;;;;;;6.15;1.70;;;;;;;;;;5115763;28;20033;-61
2023/09/20 03:18:09;;;;;;;5.88;1.80;;;;;;;;;;5115846;28;20072;-61
2023/09/20 03:20:35;;;;;;;5.65;1.42;;;;;;;;;;5115655;28;20016;-63
2023/09/20 03:23:03;;;;;;;7.28;1.90;;;;;;;;;;5115731;28;20019;-65
2023/09/20 03:25:29;;;;;;;9.15;1.95;;;;;;;;;;5113206;28;20046;-67
2023/09/20 03:27:55;;;;;;;7.90;1.80;;;;;;;;;;5114750;28;20371;-67
2023/09/20 03:30:20;;;;;;;6.30;1.67;;;;;;;;;;5110290;28;20091;-65
2023/09/20 03:32:50;;;;;;;5.65;1.85;;;;;;;;;;5115544;28;20027;-65
2023/09/20 03:35:15;;;;;;;5.22;1.65;;;;;;;;;;5109837;28;20486;-66
2023/09/20 03:37:41;;;;;;;8.63;1.90;;;;;;;;;;5115578;28;20011;-65
2023/09/20 03:40:10;;;;;;;7.10;1.92;;;;;;;;;;5115314;28;20514;-67
2023/09/20 03:42:37;;;;;;;10.57;2.03;;;;;;;;;;5115559;28;20027;-68
2023/09/20 03:45:02;;;;;;;5.22;1.80;;;;;;;;;;5115328;28;20111;-66
2023/09/20 03:47:28;;;;;;;9.70;1.60;;;;;;;;;;5114901;28;20086;-66
2023/09/20 03:49:53;;;;;;;5.47;1.67;;;;;;;;;;5113803;28;20012;-67
2023/09/20 03:52:18;;;;;;;6.53;1.52;;;;;;;;;;5114993;28;20102;-67
2023/09/20 03:54:48;;;;;;;6.30;1.73;;;;;;;;;;5110898;28;20356;-67
2023/09/20 03:57:15;;;;;;;6.88;2.10;;;;;;;;;;5115241;28;20471;-66
2023/09/20 03:59:41;;;;;;;7.00;2.00;;;;;;;;;;5110841;28;20503;-67
2023/09/20 04:02:10;;;;;;;6.85;1.90;;;;;;;;;;5112225;28;20028;-67
2023/09/20 04:04:35;;;;;;;7.60;1.85;;;;;;;;;;5113008;28;20047;-66
2023/09/20 04:07:01;;;;;;;6.20;1.75;;;;;;;;;;5114708;28;20112;-66
2023/09/20 04:09:26;;;;;;;8.55;2.42;;;;;;;;;;5114984;28;20023;-66
2023/09/20 04:11:52;;;;;;;8.50;2.20;;;;;;;;;;5114410;28;20368;-66
2023/09/20 04:14:17;;;;;;;7.18;1.80;;;;;;;;;;5114971;28;20069;-66
2023/09/20 04:16:42;;;;;;;6.78;2.03;;;;;;;;;;5105038;28;20482;-66
2023/09/20 04:19:08;;;;;;;6.03;1.98;;;;;;;;;;5114101;28;20016;-66
2023/09/20 04:21:33;;;;;;;8.70;1.90;;;;;;;;;;5114600;28;20016;-65
2023/09/20 04:24:03;;;;;;;6.55;1.95;;;;;;;;;;5114447;28;20357;-66
2023/09/20 04:26:28;;;;;;;7.10;1.90;;;;;;;;;;5113899;28;20131;-67
2023/09/20 04:28:55;;;;;;;7.13;2.10;;;;;;;;;;5114342;28;20090;-65
2023/09/20 04:31:20;;;;;;;9.63;2.00;;;;;;;;;;5109705;28;20447;-67
2023/09/20 04:33:46;;;;;;;6.75;1.77;;;;;;;;;;5114189;28;20012;-62
2023/09/20 04:36:12;;;;;;;6.88;2.10;;;;;;;;;;5114073;28;20088;-61
2023/09/20 04:38:37;;;;;;;8.70;1.90;;;;;;;;;;5112467;28;20019;-62
2023/09/20 04:41:02;;;;;;;6.47;1.92;;;;;;;;;;5114494;28;20455;-63
2023/09/20 04:43:28;;;;;;;6.72;1.77;;;;;;;;;;5114215;28;20023;-62
2023/09/20 04:45:55;;;;;;;6.68;2.10;;;;;;;;;;5109417;28;20053;-62
2023/09/20 04:48:20;;;;;;;10.55;2.28;;;;;;;;;;5114081;28;20399;-63
2023/09/20 04:50:48;;;;;;;7.53;1.80;;;;;;;;;;5110774;28;20024;-60
2023/09/20 04:53:14;;;;;;;5.40;1.67;;;;;;;;;;5108103;28;20096;-61
2023/09/20 04:55:39;;;;;;;11.60;1.98;;;;;;;;;;5109531;28;20062;-64
2023/09/20 04:58:06;;;;;;;7.78;2.42;;;;;;;;;;5109246;28;20034;-63
2023/09/20 05:00:37;;;;;;;6.18;1.80;;;;;;;;;;5111433;28;20474;-64
2023/09/20 05:03:03;;;;;;;5.72;1.92;;;;;;;;;;5111456;28;20488;-62
2023/09/20 05:05:28;;;;;;;5.50;1.83;;;;;;;;;;5113422;28;20433;-61
2023/09/20 05:07:54;;;;;;;7.78;2.30;;;;;;;;;;5114169;28;20011;-63
2023/09/20 05:10:19;;;;;;;5.18;1.90;;;;;;;;;;5112694;28;20024;-63
2023/09/20 05:12:47;;;;;;;8.18;2.10;;;;;;;;;;5113285;28;20030;-63
2023/09/20 05:15:13;;;;;;;9.02;2.05;;;;;;;;;;5112738;28;20028;-62
2023/09/20 05:17:38;;;;;;;8.00;2.05;;;;;;;;;;5109758;28;20031;-61
2023/09/20 05:20:04;;;;;;;6.90;1.83;;;;;;;;;;5110255;28;20099;-63
2023/09/20 05:22:30;;;;;;;6.07;2.10;;;;;;;;;;5110331;28;20023;-64
2023/09/20 05:24:57;;;;;;;8.30;2.30;;;;;;;;;;5091531;28;20015;-64
2023/09/20 05:27:23;;;;;;;8.20;1.88;;;;;;;;;;5112027;28;20114;-60
2023/09/20 05:29:50;;;;;;;9.57;2.10;;;;;;;;;;5111529;28;20069;-63
2023/09/20 05:32:15;;;;;;;8.98;2.08;;;;;;;;;;5112748;28;20413;-62
2023/09/20 05:34:42;;;;;;;6.85;2.10;;;;;;;;;;5113347;28;20012;-63
2023/09/20 05:37:07;;;;;;;4.95;1.95;;;;;;;;;;5112720;28;20554;-62
2023/09/20 05:39:34;;;;;;;10.32;2.33;;;;;;;;;;5113133;28;20102;-63
2023/09/20 05:42:00;;;;;;;10.25;3.45;;;;;;;;;;5112738;28;20041;-63
2023/09/20 05:44:25;;;;;;;9.88;2.10;;;;;;;;;;5113298;28;20103;-63
2023/09/20 05:46:51;;;;;;;8.73;2.30;;;;;;;;;;5112383;28;20095;-63
2023/09/20 05:49:17;;;;;;;7.35;2.08;;;;;;;;;;5112710;28;20111;-62
2023/09/20 05:51:44;;;;;;;5.68;2.03;;;;;;;;;;5112568;28;20016;-63
2023/09/20 05:54:09;;;;;;;7.57;2.20;;;;;;;;;;5112682;28;20026;-63
2023/09/20 05:56:35;;;;;;;7.40;1.92;;;;;;;;;;5112609;28;20019;-62
2023/09/20 05:59:01;;;;;;;6.35;2.10;;;;;;;;;;5112572;28;20027;-63
2023/09/20 06:01:30;;;;;;;6.10;2.03;;;;;;;;;;5112241;28;20046;-63
2023/09/20 06:03:56;;;;;;;10.05;2.65;;;;;;;;;;5112296;28;20073;-63
2023/09/20 06:06:21;;;;;;;7.50;2.20;;;;;;;;;;5111805;28;20019;-63
2023/09/20 06:08:46;;;;;;;7.40;2.15;;;;;;;;;;5112014;28;20016;-62
2023/09/20 06:11:12;;;;;;;7.38;2.05;;;;;;;;;;5111340;28;20039;-63
2023/09/20 06:13:38;;;;;;;8.75;2.50;;;;;;;;;;5111545;28;20012;-63
2023/09/20 06:16:05;;;;;;;9.10;2.25;;;;;;;;;;5110678;28;20049;-63
2023/09/20 06:18:30;;;;;;;7.03;2.40;;;;;;;;;;5110461;28;20509;-62
2023/09/20 06:20:59;;;;;;;9.57;2.40;;;;;;;;;;5109765;28;20057;-62
2023/09/20 06:23:27;;;;;;;7.07;2.22;;;;;;;;;;5107702;28;20054;-62
2023/09/20 06:25:53;;;;;;;9.88;2.08;;;;;;;;;;5104537;28;20135;-61
2023/09/20 06:28:19;;;;;;;7.32;2.05;;;;;;;;;;5108413;28;20035;-61
2023/09/20 06:30:44;;;;;;;7.88;2.45;;;;;;;;;;5108760;28;20061;-62
2023/09/20 06:33:11;;;;;;;7.13;2.20;;;;;;;;;;5109676;28;20049;-61
2023/09/20 06:35:39;;;;;;;6.40;2.63;;;;;;;;;;5099498;28;20047;-62
2023/09/20 06:38:05;;;;;;;7.32;2.10;;;;;;;;;;5106116;28;20023;-62
2023/09/20 06:40:39;;;;;;;9.23;2.30;;;;;;;;;;5112472;28;20020;-62
2023/09/20 06:43:08;;;;;;;10.55;2.33;;;;;;;;;;5108891;28;20072;-62
2023/09/20 06:45:33;;;;;;;7.10;2.10;;;;;;;;;;5111720;28;20015;-62
2023/09/20 06:48:00;;;;;;;8.80;2.22;;;;;;;;;;5111956;28;20042;-61
2023/09/20 06:50:25;;;;;;;6.38;1.98;;;;;;;;;;5108695;28;20023;-62
2023/09/20 06:52:51;;;;;;;8.05;2.47;;;;;;;;;;5111908;28;20020;-66
2023/09/20 06:55:18;;;;;;;9.50;2.22;;;;;;;;;;5111835;28;20102;-67
2023/09/20 06:57:45;;;;;;;10.13;2.28;;;;;;;;;;5112186;28;20467;-66
2023/09/20 07:00:26;;;;;;;9.30;2.10;;;;;;;;;;5111994;28;20375;-67
2023/09/20 07:02:55;;;;;;;6.20;2.00;;;;;;;;;;5111688;28;20114;-66
2023/09/20 07:05:24;;;;;;;9.13;1.85;;;;;;;;;;5111962;28;20249;-66
2023/09/20 07:07:50;;;;;;;6.93;1.83;;;;;;;;;;5108589;28;20019;-66
2023/09/20 07:10:16;;;;;;;7.40;2.00;;;;;;;;;;5111101;28;20391;-66
2023/09/20 07:12:42;;;;;;;6.40;1.85;;;;;;;;;;5111648;28;20023;-65
2023/09/20 07:15:08;;;;;;;4.18;1.40;;;;;;;;;;5111843;28;20015;-63
2023/09/20 07:17:35;;;;;;;8.05;2.05;;;;;;;;;;5106991;28;20032;-65
2023/09/20 07:20:01;;;;;;;6.50;1.95;;;;;;;;;;5109306;28;20429;-65
2023/09/20 07:22:26;;;;;;;8.13;1.90;;;;;;;;;;5111611;28;20020;-64
2023/09/20 07:24:54;;;;;;;5.13;1.60;;;;;;;;;;5111721;28;20024;-64
2023/09/20 07:27:20;;;;;;;5.05;1.70;;;;;;;;;;5110236;28;20047;-63
2023/09/20 07:29:45;;;;;;;8.10;1.83;;;;;;;;;;5111904;28;20405;-63
2023/09/20 07:32:11;;;;;;;6.22;1.70;;;;;;;;;;5112059;28;20007;-64
2023/09/20 07:34:36;;;;;;;7.65;1.90;;;;;;;;;;5110590;28;20456;-64
2023/09/20 07:37:02;;;;;;;6.50;1.90;;;;;;;;;;5115584;28;20019;-64
2023/09/20 07:39:28;;;;;;;5.43;1.58;;;;;;;;;;5115505;28;20095;-64
2023/09/20 07:41:58;;;;;;;7.10;2.28;;;;;;;;;;5115593;28;20111;-64
2023/09/20 07:44:24;;;;;;;3.85;1.40;;;;;;;;;;5115127;28;20034;-63
2023/09/20 07:46:49;;;;;;;6.95;2.13;;;;;;;;;;5115272;28;20099;-63
2023/09/20 07:49:15;;;;;;;7.25;2.38;;;;;;;;;;5115285;28;20016;-63
2023/09/20 07:51:41;;;;;;;7.10;1.77;;;;;;;;;;5115429;28;20011;-64
2023/09/20 07:54:09;;;;;;;4.80;1.42;;;;;;;;;;5114918;28;20016;-65
2023/09/20 07:56:35;;;;;;;6.43;1.80;;;;;;;;;;5115087;28;20030;-62
2023/09/20 07:59:01;;;;;;;6.28;1.95;;;;;;;;;;5115259;28;20456;-64
2023/09/20 08:01:29;;;;;;;5.40;1.60;;;;;;;;;;5114779;28;20483;-65
2023/09/20 08:03:58;;;;;;;4.82;1.50;;;;;;;;;;5114793;28;20534;-66
2023/09/20 08:06:24;;;;;;;6.43;2.00;;;;;;;;;;5115026;28;20027;-64
2023/09/20 08:08:49;;;;;;;7.82;2.70;;;;;;;;;;5114821;28;20038;-64
2023/09/20 08:11:15;;;;;;;7.75;2.20;;;;;;;;;;5114847;28;20011;-66
2023/09/20 08:13:40;;;;;;;7.60;1.80;;;;;;;;;;5113561;28;20495;-65
2023/09/20 08:16:09;;;;;;;6.72;2.22;;;;;;;;;;5114456;28;20391;-62
2023/09/20 08:21:18;;;;;;;3.90;1.67;;;;;;;;;;5114582;28;20537;-65
2023/09/20 09:02:13;;;;;;;4.50;1.77;;;;;;;;;;5113862;28;20540;-65
2023/09/20 09:04:39;;;;;;;6.45;2.00;;;;;;;;;;5113772;28;20455;-65
2023/09/20 09:07:05;;;;;;;4.72;1.83;;;;;;;;;;5113405;28;20028;-66
2023/09/20 09:09:30;;;;;;;5.10;2.10;;;;;;;;;;5113666;28;20407;-64
2023/09/20 09:11:57;;;;;;;8.38;2.30;;;;;;;;;;5112875;28;20084;-65
2023/09/20 09:14:22;;;;;;;8.02;2.28;;;;;;;;;;5113813;28;20478;-66
2023/09/20 09:16:48;;;;;;;7.40;2.13;;;;;;;;;;5113223;28;20016;-63
2023/09/20 09:19:13;;;;;;;10.70;2.58;;;;;;;;;;5110822;28;20028;-66
2023/09/20 09:21:38;;;;;;;7.72;2.60;;;;;;;;;;5113447;28;20023;-65
2023/09/20 09:24:03;;;;;;;5.40;2.47;;;;;;;;;;5110810;28;20050;-66
2023/09/20 09:26:29;;;;;;;7.00;2.80;;;;;;;;;;5110954;28;20096;-66
2023/09/20 09:28:55;;;;;;;9.52;2.70;;;;;;;;;;5113188;28;20023;-64
2023/09/20 09:31:20;;;;;;;8.00;2.78;;;;;;;;;;5113010;28;20034;-66
2023/09/20 09:33:46;;;;;;;8.70;2.58;;;;;;;;;;5113241;28;20413;-64
2023/09/20 09:36:13;;;;;;;5.68;2.50;;;;;;;;;;5113158;28;20096;-64
2023/09/20 09:38:39;;;;;;;8.10;2.47;;;;;;;;;;5113182;28;20024;-65
2023/09/20 09:41:05;;;;;;;7.55;2.55;;;;;;;;;;5112745;28;20039;-65
2023/09/20 09:43:31;;;;;;;6.95;2.90;;;;;;;;;;5112742;28;20043;-65
2023/09/20 09:46:09;;;;;;;7.32;2.28;;;;;;;;;;5113093;28;20072;-65
2023/09/20 09:48:37;;;;;;;5.78;2.03;;;;;;;;;;5110982;28;20030;-65
2023/09/20 09:51:04;;;;;;;8.02;2.28;;;;;;;;;;5109107;28;20015;-66
2023/09/20 09:53:29;;;;;;;6.70;2.30;;;;;;;;;;5112582;28;20304;-64
2023/09/20 09:55:56;;;;;;;6.18;2.05;;;;;;;;;;5111854;28;20102;-66
2023/09/20 09:58:21;;;;;;;6.80;2.28;;;;;;;;;;5112912;28;20382;-65
2023/09/20 10:00:48;;;;;;;6.03;2.10;;;;;;;;;;5112488;28;20095;-64
2023/09/20 10:03:25;;;;;;;6.25;2.10;;;;;;;;;;5112454;28;20020;-65
2023/09/20 10:05:53;;;;;;;4.30;1.70;;;;;;;;;;5112238;28;20106;-65
2023/09/20 10:08:20;;;;;;;6.15;2.33;;;;;;;;;;5112282;28;20019;-64
2023/09/20 10:10:46;;;;;;;8.15;2.35;;;;;;;;;;5112796;28;20047;-66
2023/09/20 10:13:14;;;;;;;6.43;1.90;;;;;;;;;;5112219;28;20039;-65
2023/09/20 10:15:43;;;;;;;5.80;2.03;;;;;;;;;;5112574;28;20020;-66
2023/09/20 10:18:08;;;;;;;6.35;1.95;;;;;;;;;;5112327;28;20080;-65
2023/09/20 10:20:52;;;;;;;5.18;1.80;;;;;;;;;;5112409;28;20380;-64
2023/09/20 10:23:17;;;;;;;7.28;2.05;;;;;;;;;;5112177;28;20499;-65
2023/09/20 10:25:48;;;;;;;4.88;1.80;;;;;;;;;;5112012;28;20074;-66
2023/09/20 10:28:16;;;;;;;4.43;1.70;;;;;;;;;;5112579;28;20062;-65
2023/09/20 10:31:01;;;;;;;4.38;1.90;;;;;;;;;;5112307;28;20301;-65
2023/09/20 10:33:45;;;;;;;8.25;2.10;;;;;;;;;;5112135;28;20532;-66
2023/09/20 10:36:20;;;;;;;6.45;1.77;;;;;;;;;;5111410;28;20035;-65
2023/09/20 10:38:46;;;;;;;5.75;2.10;;;;;;;;;;5112142;28;20413;-66
2023/09/20 10:41:12;;;;;;;5.30;1.98;;;;;;;;;;5112133;28;20151;-68
2023/09/20 10:43:37;;;;;;;6.45;1.92;;;;;;;;;;5111649;28;20019;-66
2023/09/20 10:46:10;;;;;;;8.07;2.40;;;;;;;;;;5112122;28;20028;-66
2023/09/20 10:48:39;;;;;;;6.72;2.22;;;;;;;;;;5112227;28;20103;-67
2023/09/20 10:51:05;;;;;;;4.75;2.15;;;;;;;;;;5112597;28;20087;-64
2023/09/20 10:53:47;;;;;;;6.28;2.00;;;;;;;;;;5112111;28;20432;-65
2023/09/20 10:56:33;;;;;;;6.43;2.15;;;;;;;;;;5112325;28;20375;-67
2023/09/20 10:58:59;;;;;;;6.30;1.80;;;;;;;;;;5111873;28;20036;-67
2023/09/20 11:01:25;;;;;;;5.15;1.70;;;;;;;;;;5111753;28;20102;-66
2023/09/20 11:03:51;;;;;;;7.70;2.00;;;;;;;;;;5112029;28;20107;-66
2023/09/20 11:06:16;;;;;;;4.55;1.77;;;;;;;;;;5112089;28;20034;-66
2023/09/20 11:08:43;;;;;;;7.25;1.90;;;;;;;;;;5113685;28;20496;-65
2023/09/20 11:11:14;;;;;;;5.38;1.90;;;;;;;;;;5110832;28;20016;-67
2023/09/20 11:13:42;;;;;;;4.93;2.08;;;;;;;;;;5115821;28;20085;-67
2023/09/20 11:16:08;;;;;;;6.00;1.80;;;;;;;;;;5116097;28;20119;-66
2023/09/20 11:18:34;;;;;;;4.60;1.60;;;;;;;;;;5115891;28;20106;-66
2023/09/20 11:21:00;;;;;;;5.40;2.00;;;;;;;;;;5115984;28;20098;-66
2023/09/20 11:23:25;;;;;;;4.38;1.67;;;;;;;;;;5115795;28;20471;-68
2023/09/20 11:25:51;;;;;;;5.63;2.00;;;;;;;;;;5113116;28;20043;-66
2023/09/20 11:28:16;;;;;;;7.13;1.70;;;;;;;;;;5115396;28;20428;-66
2023/09/20 11:30:43;;;;;;;5.82;1.50;;;;;;;;;;5113424;28;20043;-66
2023/09/20 11:33:24;;;;;;;5.30;1.55;;;;;;;;;;5115725;28;20019;-67
2023/09/20 11:35:49;;;;;;;4.00;1.53;;;;;;;;;;5115739;28;20460;-69
2023/09/20 11:38:15;;;;;;;5.82;1.38;;;;;;;;;;5115542;28;20306;-66
2023/09/20 11:40:43;;;;;;;7.38;1.80;;;;;;;;;;5115560;28;20379;-65
2023/09/20 11:43:12;;;;;;;3.92;1.70;;;;;;;;;;5115371;28;20016;-68
2023/09/20 11:45:41;;;;;;;4.53;1.73;;;;;;;;;;5115261;28;20483;-66
2023/09/20 11:48:12;;;;;;;4.97;1.77;;;;;;;;;;5115263;28;20376;-68
2023/09/20 11:50:42;;;;;;;5.22;1.90;;;;;;;;;;5114662;28;20091;-66
2023/09/20 11:53:12;;;;;;;4.55;1.70;;;;;;;;;;5115014;28;20019;-67
2023/09/20 11:55:40;;;;;;;5.55;1.63;;;;;;;;;;5115411;28;20039;-66
2023/09/20 11:58:07;;;;;;;5.43;1.60;;;;;;;;;;5114772;28;20163;-68
2023/09/20 12:00:33;;;;;;;6.65;1.77;;;;;;;;;;5114794;28;20149;-68
2023/09/20 12:02:58;;;;;;;5.95;1.85;;;;;;;;;;5114944;28;20065;-68
2023/09/20 12:05:24;;;;;;;7.10;2.00;;;;;;;;;;5115093;28;20459;-67
2023/09/20 12:07:56;;;;;;;4.72;1.90;;;;;;;;;;5114493;28;20459;-66
2023/09/20 12:10:21;;;;;;;4.53;1.75;;;;;;;;;;5114636;28;20015;-67
2023/09/20 12:12:47;;;;;;;5.18;1.65;;;;;;;;;;5111147;28;20014;-67
2023/09/20 12:15:12;;;;;;;5.07;1.77;;;;;;;;;;5114988;28;20076;-66
2023/09/20 12:17:37;;;;;;;6.13;2.00;;;;;;;;;;5114919;28;20452;-67
2023/09/20 12:20:04;;;;;;;5.68;1.52;;;;;;;;;;5114388;28;20423;-69
2023/09/20 12:22:29;;;;;;;4.95;1.63;;;;;;;;;;5114332;28;20226;-67
2023/09/20 12:24:54;;;;;;;5.50;1.70;;;;;;;;;;5113845;28;20100;-66
2023/09/20 12:27:20;;;;;;;4.47;1.55;;;;;;;;;;5113872;28;20047;-68
2023/09/20 12:29:45;;;;;;;3.22;1.42;;;;;;;;;;5113043;28;20011;-67
2023/09/20 12:32:11;;;;;;;3.22;1.35;;;;;;;;;;5114262;28;20012;-67
2023/09/20 12:34:36;;;;;;;4.15;1.58;;;;;;;;;;5114051;28;20042;-69
2023/09/20 12:37:01;;;;;;;4.45;1.70;;;;;;;;;;5114518;28;20019;-66
2023/09/20 12:39:26;;;;;;;4.20;1.48;;;;;;;;;;5114079;28;20019;-67
2023/09/20 12:41:51;;;;;;;5.55;1.40;;;;;;;;;;5113913;28;20072;-67
2023/09/20 12:44:17;;;;;;;5.95;1.52;;;;;;;;;;5114345;28;20099;-61
2023/09/20 12:46:43;;;;;;;5.65;1.60;;;;;;;;;;5113896;28;20039;-65
2023/09/20 12:49:08;;;;;;;4.68;1.50;;;;;;;;;;5114051;28;20351;-62
2023/09/20 12:51:33;;;;;;;3.60;1.38;;;;;;;;;;5113731;28;20023;-65
2023/09/20 12:53:58;;;;;;;7.80;1.52;;;;;;;;;;5114166;28;20007;-61
2023/09/20 12:56:24;;;;;;;5.63;1.40;;;;;;;;;;5114015;28;20385;-62
2023/09/20 12:58:50;;;;;;;3.92;1.70;;;;;;;;;;5113771;28;20426;-63
2023/09/20 13:01:15;;;;;;;5.18;1.35;;;;;;;;;;5112590;28;20031;-63
2023/09/20 13:03:41;;;;;;;4.40;1.50;;;;;;;;;;5110964;28;20016;-62
2023/09/20 13:06:07;;;;;;;7.47;1.80;;;;;;;;;;5113512;28;20103;-63
2023/09/20 13:08:32;;;;;;;3.90;1.77;;;;;;;;;;5113369;28;20047;-65
2023/09/20 13:10:57;;;;;;;5.95;2.00;;;;;;;;;;5113345;28;20036;-63
2023/09/20 13:13:23;;;;;;;3.17;1.17;;;;;;;;;;5110575;28;20016;-64
2023/09/20 13:15:49;;;;;;;4.13;1.48;;;;;;;;;;5113601;28;20094;-64
2023/09/20 13:18:16;;;;;;;3.88;1.45;;;;;;;;;;5113390;28;20053;-64
2023/09/20 13:20:42;;;;;;;3.95;1.73;;;;;;;;;;5113302;28;20026;-63
2023/09/20 13:23:08;;;;;;;4.97;1.40;;;;;;;;;;5111744;28;20012;-62
2023/09/20 13:25:39;;;;;;;3.78;1.33;;;;;;;;;;5109734;28;20069;-65
2023/09/20 13:28:05;;;;;;;3.13;1.20;;;;;;;;;;5113485;28;20475;-60
2023/09/20 13:30:31;;;;;;;5.95;1.42;;;;;;;;;;5112711;28;20022;-60
2023/09/20 13:32:57;;;;;;;7.97;1.30;;;;;;;;;;5112813;28;20060;-64
2023/09/20 13:35:22;;;;;;;5.13;1.50;;;;;;;;;;5113382;28;20015;-64
2023/09/20 13:37:47;;;;;;;4.85;1.20;;;;;;;;;;5113255;28;20027;-64
2023/09/20 13:40:14;;;;;;;4.57;1.75;;;;;;;;;;5094711;28;20485;-66
2023/09/20 13:42:41;;;;;;;4.45;1.40;;;;;;;;;;5113125;28;20227;-66
2023/09/20 13:45:09;;;;;;;3.40;1.42;;;;;;;;;;5105099;28;20020;-63
2023/09/20 13:47:35;;;;;;;4.93;1.23;;;;;;;;;;5112810;28;20379;-64
2023/09/20 13:50:00;;;;;;;3.00;1.20;;;;;;;;;;5112465;28;20030;-64
2023/09/20 13:52:26;;;;;;;3.92;1.10;;;;;;;;;;5112789;28;20364;-65
2023/09/20 13:54:51;;;;;;;4.30;1.27;;;;;;;;;;5112700;28;20029;-63
2023/09/20 13:57:16;;;;;;;2.42;1.02;;;;;;;;;;5112962;28;20468;-61
2023/09/20 13:59:45;;;;;;;4.00;1.20;;;;;;;;;;5112476;28;20016;-62
2023/09/20 14:02:14;;;;;;;4.07;1.20;;;;;;;;;;5109033;28;20489;-64
2023/09/20 14:04:39;;;;;;;4.18;1.30;;;;;;;;;;5112700;28;20012;-64
2023/09/20 14:07:05;;;;;;;3.25;1.05;;;;;;;;;;5112662;28;20383;-61
2023/09/20 14:09:30;;;;;;;2.22;1.02;;;;;;;;;;5112790;28;20421;-63
2023/09/20 14:11:56;;;;;;;3.67;1.20;;;;;;;;;;5109947;28;20023;-64
2023/09/20 14:14:26;;;;;;;4.00;1.27;;;;;;;;;;5112364;28;20523;-66
2023/09/20 14:16:52;;;;;;;2.88;1.10;;;;;;;;;;5112427;28;20072;-64
2023/09/20 14:19:19;;;;;;;4.53;1.20;;;;;;;;;;5112656;28;20424;-65
2023/09/20 14:21:46;;;;;;;6.35;1.20;;;;;;;;;;5112227;28;21325;-67
2023/09/20 14:24:13;;;;;;;3.38;1.35;;;;;;;;;;5112308;28;20094;-65
2023/09/20 14:26:38;;;;;;;4.22;1.10;;;;;;;;;;5111772;28;20513;-65
2023/09/20 14:29:09;;;;;;;3.97;0.93;;;;;;;;;;5112339;28;20012;-66
2023/09/20 14:31:35;;;;;;;3.45;1.10;;;;;;;;;;5111942;28;20023;-63
2023/09/20 14:34:00;;;;;;;2.15;0.90;;;;;;;;;;5112363;28;20016;-66
2023/09/20 14:36:25;;;;;;;4.07;1.30;;;;;;;;;;5112136;28;20016;-64
2023/09/20 14:38:51;;;;;;;4.22;1.00;;;;;;;;;;5093911;28;20020;-63
2023/09/20 14:41:16;;;;;;;7.60;1.30;;;;;;;;;;5111723;28;20028;-62
2023/09/20 14:43:41;;;;;;;5.60;1.20;;;;;;;;;;5115441;28;20016;-67
2023/09/20 14:46:06;;;;;;;5.10;1.20;;;;;;;;;;5116431;28;20028;-67
2023/09/20 14:48:32;;;;;;;4.25;1.23;;;;;;;;;;5116384;28;20018;-67
2023/09/20 14:51:01;;;;;;;3.33;1.17;;;;;;;;;;5116149;28;20012;-66
2023/09/20 14:53:27;;;;;;;5.15;1.30;;;;;;;;;;5115273;28;20035;-66
2023/09/20 14:55:52;;;;;;;4.10;1.30;;;;;;;;;;5114508;28;20408;-65
2023/09/20 14:58:18;;;;;;;5.30;1.65;;;;;;;;;;5115939;28;20467;-68
2023/09/20 15:00:44;;;;;;;2.70;1.00;;;;;;;;;;5115982;28;20014;-66
2023/09/20 15:03:11;;;;;;;6.10;1.20;;;;;;;;;;5116054;28;20016;-66
2023/09/20 15:05:38;;;;;;;5.00;1.33;;;;;;;;;;5115986;28;20019;-73
2023/09/20 15:08:04;;;;;;;4.53;1.23;;;;;;;;;;5116098;28;20403;-71
2023/09/20 15:10:29;;;;;;;2.58;1.20;;;;;;;;;;5115822;28;20024;-69
2023/09/20 15:12:57;;;;;;;4.28;1.30;;;;;;;;;;5115745;28;20485;-71
2023/09/20 15:15:23;;;;;;;2.65;1.10;;;;;;;;;;5115846;28;20040;-73
2023/09/20 15:17:48;;;;;;;4.28;1.23;;;;;;;;;;5115654;28;20111;-69
2023/09/20 15:20:16;;;;;;;4.13;1.38;;;;;;;;;;5097586;28;20022;-70
2023/09/20 15:22:42;;;;;;;2.72;1.08;;;;;;;;;;5115540;28;20015;-73
2023/09/20 15:25:08;;;;;;;4.72;1.48;;;;;;;;;;5115339;28;20527;-73